sensor_id;sensor_type;location;lat;lon;timestamp;temperature;humidity
23267;DHT22;11802;53.160;8.214;2023-08-24T00:00:14;17.60;99.90
23267;DHT22;11802;53.160;8.214;2023-08-24T00:02:40;17.60;99.90
23267;DHT22;11802;53.160;8.214;2023-08-24T00:05:05;17.50;99.90
23267;DHT22;11802;53.160;8.214;2023-08-24T00:07:31;17.50;99.90
23267;DHT22;11802;53.160;8.214;2023-08-24T00:09:58;17.50;99.90
23267;DHT22;11802;53.160;8.214;2023-08-24T00:12:23;17.40;99.90
23267;DHT22;11802;53.160;8.214;2023-08-24T00:14:49;17.40;99.90
23267;DHT22;11802;53.160;8.214;2023-08-24T00:17:14;17.30;99.90
23267;DHT22;11802;53.160;8.214;2023-08-24T00:19:40;17.20;99.90
23267;DHT22;11802;53.160;8.214;2023-08-24T00:22:05;17.20;99.90
23267;DHT22;11802;53.160;8.214;2023-08-24T00:24:31;17.10;99.90
23267;DHT22;11802;53.160;8.214;2023-08-24T00:26:57;17.10;99.90
23267;DHT22;11802;53.160;8.214;2023-08-24T00:29:22;17.10;99.90
23267;DHT22;11802;53.160;8.214;2023-08-24T00:31:48;17.10;99.90
23267;DHT22;11802;53.160;8.214;2023-08-24T00:34:13;17.10;99.90
23267;DHT22;11802;53.160;8.214;2023-08-24T00:36:39;17.00;99.90
23267;DHT22;11802;53.160;8.214;2023-08-24T00:39:04;17.00;99.90
23267;DHT22;11802;53.160;8.214;2023-08-24T00:41:30;16.90;99.90
23267;DHT22;11802;53.160;8.214;2023-08-24T00:43:55;16.90;99.90
23267;DHT22;11802;53.160;8.214;2023-08-24T00:46:21;16.80;99.90
23267;DHT22;11802;53.160;8.214;2023-08-24T00:48:48;16.80;99.90
23267;DHT22;11802;53.160;8.214;2023-08-24T00:51:14;16.80;99.90
23267;DHT22;11802;53.160;8.214;2023-08-24T00:53:39;16.70;99.90
23267;DHT22;11802;53.160;8.214;2023-08-24T00:56:05;16.70;99.90
23267;DHT22;11802;53.160;8.214;2023-08-24T00:58:32;16.70;99.90
23267;DHT22;11802;53.160;8.214;2023-08-24T01:00:58;16.60;99.90
23267;DHT22;11802;53.160;8.214;2023-08-24T01:03:24;16.70;99.90
23267;DHT22;11802;53.160;8.214;2023-08-24T01:05:50;16.70;99.90
23267;DHT22;11802;53.160;8.214;2023-08-24T01:08:16;16.60;99.90
23267;DHT22;11802;53.160;8.214;2023-08-24T01:13:50;16.60;99.90
23267;DHT22;11802;53.160;8.214;2023-08-24T01:16:20;16.50;99.90
23267;DHT22;11802;53.160;8.214;2023-08-24T01:18:56;16.50;99.90
23267;DHT22;11802;53.160;8.214;2023-08-24T01:21:22;16.50;99.90
23267;DHT22;11802;53.160;8.214;2023-08-24T01:24:04;16.50;99.90
23267;DHT22;11802;53.160;8.214;2023-08-24T01:26:34;16.40;99.90
23267;DHT22;11802;53.160;8.214;2023-08-24T01:29:01;16.40;99.90
23267;DHT22;11802;53.160;8.214;2023-08-24T01:31:30;16.30;99.90
23267;DHT22;11802;53.160;8.214;2023-08-24T01:33:55;16.30;99.90
23267;DHT22;11802;53.160;8.214;2023-08-24T01:36:21;16.30;99.90
23267;DHT22;11802;53.160;8.214;2023-08-24T01:38:58;16.20;99.90
23267;DHT22;11802;53.160;8.214;2023-08-24T01:41:30;16.20;99.90
23267;DHT22;11802;53.160;8.214;2023-08-24T01:43:57;16.10;99.90
23267;DHT22;11802;53.160;8.214;2023-08-24T01:46:24;16.10;99.90
23267;DHT22;11802;53.160;8.214;2023-08-24T01:48:52;16.10;99.90
23267;DHT22;11802;53.160;8.214;2023-08-24T01:51:18;16.00;99.90
23267;DHT22;11802;53.160;8.214;2023-08-24T01:53:45;16.00;99.90
23267;DHT22;11802;53.160;8.214;2023-08-24T01:56:12;16.00;99.90
23267;DHT22;11802;53.160;8.214;2023-08-24T01:58:38;15.90;99.90
23267;DHT22;11802;53.160;8.214;2023-08-24T02:01:05;15.90;99.90
23267;DHT22;11802;53.160;8.214;2023-08-24T02:03:31;15.90;99.90
23267;DHT22;11802;53.160;8.214;2023-08-24T02:05:56;15.80;99.90
23267;DHT22;11802;53.160;8.214;2023-08-24T02:08:22;15.80;99.90
23267;DHT22;11802;53.160;8.214;2023-08-24T02:10:48;15.70;99.90
23267;DHT22;11802;53.160;8.214;2023-08-24T02:13:13;15.70;99.90
23267;DHT22;11802;53.160;8.214;2023-08-24T02:15:39;15.70;99.90
23267;DHT22;11802;53.160;8.214;2023-08-24T02:18:07;15.70;99.90
23267;DHT22;11802;53.160;8.214;2023-08-24T02:20:39;15.70;99.90
23267;DHT22;11802;53.160;8.214;2023-08-24T02:23:05;15.70;99.90
23267;DHT22;11802;53.160;8.214;2023-08-24T02:25:31;15.70;99.90
23267;DHT22;11802;53.160;8.214;2023-08-24T02:27:57;15.70;99.90
23267;DHT22;11802;53.160;8.214;2023-08-24T02:30:22;15.70;99.90
23267;DHT22;11802;53.160;8.214;2023-08-24T02:32:48;15.70;99.90
23267;DHT22;11802;53.160;8.214;2023-08-24T02:35:14;15.70;99.90
23267;DHT22;11802;53.160;8.214;2023-08-24T02:37:39;15.70;99.90
23267;DHT22;11802;53.160;8.214;2023-08-24T02:40:05;15.70;99.90
23267;DHT22;11802;53.160;8.214;2023-08-24T02:42:31;15.70;99.90
23267;DHT22;11802;53.160;8.214;2023-08-24T02:44:58;15.70;99.90
23267;DHT22;11802;53.160;8.214;2023-08-24T02:47:23;15.70;99.90
23267;DHT22;11802;53.160;8.214;2023-08-24T02:49:49;15.70;99.90
23267;DHT22;11802;53.160;8.214;2023-08-24T02:52:14;15.70;99.90
23267;DHT22;11802;53.160;8.214;2023-08-24T02:54:40;15.80;99.90
23267;DHT22;11802;53.160;8.214;2023-08-24T02:57:05;15.80;99.90
23267;DHT22;11802;53.160;8.214;2023-08-24T02:59:31;15.90;99.90
23267;DHT22;11802;53.160;8.214;2023-08-24T03:01:57;15.90;99.90
23267;DHT22;11802;53.160;8.214;2023-08-24T03:04:23;15.90;99.90
23267;DHT22;11802;53.160;8.214;2023-08-24T03:06:49;16.00;99.90
23267;DHT22;11802;53.160;8.214;2023-08-24T03:09:14;16.00;99.90
23267;DHT22;11802;53.160;8.214;2023-08-24T03:11:41;16.10;99.90
23267;DHT22;11802;53.160;8.214;2023-08-24T03:14:06;16.00;99.90
23267;DHT22;11802;53.160;8.214;2023-08-24T03:16:32;16.10;99.90
23267;DHT22;11802;53.160;8.214;2023-08-24T03:18:58;16.10;99.90
23267;DHT22;11802;53.160;8.214;2023-08-24T03:21:23;16.10;99.90
23267;DHT22;11802;53.160;8.214;2023-08-24T03:23:49;16.10;99.90
23267;DHT22;11802;53.160;8.214;2023-08-24T03:26:14;16.10;99.90
23267;DHT22;11802;53.160;8.214;2023-08-24T03:28:42;16.20;99.90
23267;DHT22;11802;53.160;8.214;2023-08-24T03:31:07;16.20;99.90
23267;DHT22;11802;53.160;8.214;2023-08-24T03:33:33;16.20;99.90
23267;DHT22;11802;53.160;8.214;2023-08-24T03:36:00;16.20;99.90
23267;DHT22;11802;53.160;8.214;2023-08-24T03:38:26;16.20;99.90
23267;DHT22;11802;53.160;8.214;2023-08-24T03:40:52;16.20;99.90
23267;DHT22;11802;53.160;8.214;2023-08-24T03:43:17;16.20;99.90
23267;DHT22;11802;53.160;8.214;2023-08-24T03:45:43;16.20;99.90
23267;DHT22;11802;53.160;8.214;2023-08-24T03:48:09;16.20;99.90
23267;DHT22;11802;53.160;8.214;2023-08-24T03:50:35;16.20;99.90
23267;DHT22;11802;53.160;8.214;2023-08-24T03:53:00;16.20;99.90
23267;DHT22;11802;53.160;8.214;2023-08-24T03:55:26;16.20;99.90
23267;DHT22;11802;53.160;8.214;2023-08-24T03:57:52;16.20;99.90
23267;DHT22;11802;53.160;8.214;2023-08-24T04:00:19;16.20;99.90
23267;DHT22;11802;53.160;8.214;2023-08-24T04:02:45;16.20;99.90
23267;DHT22;11802;53.160;8.214;2023-08-24T04:05:11;16.20;99.90
23267;DHT22;11802;53.160;8.214;2023-08-24T04:07:37;16.20;99.90
23267;DHT22;11802;53.160;8.214;2023-08-24T04:10:03;16.10;99.90
23267;DHT22;11802;53.160;8.214;2023-08-24T04:12:33;16.10;99.90
23267;DHT22;11802;53.160;8.214;2023-08-24T04:14:59;16.10;99.90
23267;DHT22;11802;53.160;8.214;2023-08-24T04:17:25;16.10;99.90
23267;DHT22;11802;53.160;8.214;2023-08-24T04:19:51;16.10;99.90
23267;DHT22;11802;53.160;8.214;2023-08-24T04:22:17;16.10;99.90
23267;DHT22;11802;53.160;8.214;2023-08-24T04:24:42;16.10;99.90
23267;DHT22;11802;53.160;8.214;2023-08-24T04:27:08;16.10;99.90
23267;DHT22;11802;53.160;8.214;2023-08-24T04:29:33;16.20;99.90
23267;DHT22;11802;53.160;8.214;2023-08-24T04:31:59;16.20;99.90
23267;DHT22;11802;53.160;8.214;2023-08-24T04:34:24;16.20;99.90
23267;DHT22;11802;53.160;8.214;2023-08-24T04:36:50;16.30;99.90
23267;DHT22;11802;53.160;8.214;2023-08-24T04:39:15;16.30;99.90
23267;DHT22;11802;53.160;8.214;2023-08-24T04:41:42;16.30;99.90
23267;DHT22;11802;53.160;8.214;2023-08-24T04:44:07;16.30;99.90
23267;DHT22;11802;53.160;8.214;2023-08-24T04:46:33;16.30;99.90
23267;DHT22;11802;53.160;8.214;2023-08-24T04:48:59;16.30;99.90
23267;DHT22;11802;53.160;8.214;2023-08-24T04:51:24;16.30;99.90
23267;DHT22;11802;53.160;8.214;2023-08-24T04:53:50;16.30;99.90
23267;DHT22;11802;53.160;8.214;2023-08-24T04:56:15;16.30;99.90
23267;DHT22;11802;53.160;8.214;2023-08-24T04:58:52;16.40;99.90
23267;DHT22;11802;53.160;8.214;2023-08-24T05:01:17;16.40;99.90
23267;DHT22;11802;53.160;8.214;2023-08-24T05:03:43;16.40;99.90
23267;DHT22;11802;53.160;8.214;2023-08-24T05:06:08;16.50;99.90
23267;DHT22;11802;53.160;8.214;2023-08-24T05:08:34;16.50;99.90
23267;DHT22;11802;53.160;8.214;2023-08-24T05:10:59;16.60;99.90
23267;DHT22;11802;53.160;8.214;2023-08-24T05:13:25;16.60;99.90
23267;DHT22;11802;53.160;8.214;2023-08-24T05:15:50;16.70;99.90
23267;DHT22;11802;53.160;8.214;2023-08-24T05:18:16;16.80;99.90
23267;DHT22;11802;53.160;8.214;2023-08-24T05:20:41;16.80;99.90
23267;DHT22;11802;53.160;8.214;2023-08-24T05:23:07;16.90;99.90
23267;DHT22;11802;53.160;8.214;2023-08-24T05:25:32;16.90;99.90
23267;DHT22;11802;53.160;8.214;2023-08-24T05:27:59;17.00;99.90
23267;DHT22;11802;53.160;8.214;2023-08-24T05:30:25;17.10;99.90
23267;DHT22;11802;53.160;8.214;2023-08-24T05:32:54;17.10;99.90
23267;DHT22;11802;53.160;8.214;2023-08-24T05:35:20;17.10;99.90
23267;DHT22;11802;53.160;8.214;2023-08-24T05:37:47;17.20;99.90
23267;DHT22;11802;53.160;8.214;2023-08-24T05:40:13;17.40;99.90
23267;DHT22;11802;53.160;8.214;2023-08-24T05:42:38;17.50;99.90
23267;DHT22;11802;53.160;8.214;2023-08-24T05:45:05;17.50;99.90
23267;DHT22;11802;53.160;8.214;2023-08-24T05:47:30;17.60;99.90
23267;DHT22;11802;53.160;8.214;2023-08-24T05:49:56;17.60;99.90
23267;DHT22;11802;53.160;8.214;2023-08-24T05:52:22;17.60;99.90
23267;DHT22;11802;53.160;8.214;2023-08-24T05:54:47;17.80;99.90
23267;DHT22;11802;53.160;8.214;2023-08-24T05:57:13;17.80;99.90
23267;DHT22;11802;53.160;8.214;2023-08-24T05:59:39;18.00;99.90
23267;DHT22;11802;53.160;8.214;2023-08-24T06:02:04;18.20;99.90
23267;DHT22;11802;53.160;8.214;2023-08-24T06:04:31;18.40;99.90
23267;DHT22;11802;53.160;8.214;2023-08-24T06:06:56;18.60;99.90
23267;DHT22;11802;53.160;8.214;2023-08-24T06:09:22;18.70;99.90
23267;DHT22;11802;53.160;8.214;2023-08-24T06:11:47;18.80;99.90
23267;DHT22;11802;53.160;8.214;2023-08-24T06:14:13;19.00;99.90
23267;DHT22;11802;53.160;8.214;2023-08-24T06:16:38;19.00;99.90
23267;DHT22;11802;53.160;8.214;2023-08-24T06:19:04;19.30;99.90
23267;DHT22;11802;53.160;8.214;2023-08-24T06:21:29;19.40;99.90
23267;DHT22;11802;53.160;8.214;2023-08-24T06:23:55;19.90;99.90
23267;DHT22;11802;53.160;8.214;2023-08-24T06:26:20;20.60;99.90
23267;DHT22;11802;53.160;8.214;2023-08-24T06:28:46;21.60;1.00
23267;DHT22;11802;53.160;8.214;2023-08-24T06:31:12;23.00;99.90
23267;DHT22;11802;53.160;8.214;2023-08-24T06:33:38;23.70;1.00
23267;DHT22;11802;53.160;8.214;2023-08-24T06:36:10;24.30;1.00
23267;DHT22;11802;53.160;8.214;2023-08-24T06:38:35;25.00;1.00
23267;DHT22;11802;53.160;8.214;2023-08-24T06:41:01;26.00;94.20
23267;DHT22;11802;53.160;8.214;2023-08-24T06:43:27;26.10;99.90
23267;DHT22;11802;53.160;8.214;2023-08-24T06:45:54;27.00;99.90
23267;DHT22;11802;53.160;8.214;2023-08-24T06:48:20;27.30;96.20
23267;DHT22;11802;53.160;8.214;2023-08-24T06:50:45;28.60;1.00
23267;DHT22;11802;53.160;8.214;2023-08-24T06:53:11;29.10;1.00
23267;DHT22;11802;53.160;8.214;2023-08-24T06:55:37;30.00;1.00
23267;DHT22;11802;53.160;8.214;2023-08-24T06:58:03;30.50;1.00
23267;DHT22;11802;53.160;8.214;2023-08-24T07:00:32;30.90;1.00
23267;DHT22;11802;53.160;8.214;2023-08-24T07:02:59;29.10;1.00
23267;DHT22;11802;53.160;8.214;2023-08-24T07:05:25;27.80;1.00
23267;DHT22;11802;53.160;8.214;2023-08-24T07:07:51;26.80;1.00
23267;DHT22;11802;53.160;8.214;2023-08-24T07:10:17;26.90;1.00
23267;DHT22;11802;53.160;8.214;2023-08-24T07:12:43;27.00;1.00
23267;DHT22;11802;53.160;8.214;2023-08-24T07:15:13;27.10;1.00
23267;DHT22;11802;53.160;8.214;2023-08-24T07:17:39;27.70;1.00
23267;DHT22;11802;53.160;8.214;2023-08-24T07:20:05;28.60;1.00
23267;DHT22;11802;53.160;8.214;2023-08-24T07:22:32;29.00;1.00
23267;DHT22;11802;53.160;8.214;2023-08-24T07:24:57;29.10;1.00
23267;DHT22;11802;53.160;8.214;2023-08-24T07:27:23;29.30;1.00
23267;DHT22;11802;53.160;8.214;2023-08-24T07:29:49;29.20;99.90
23267;DHT22;11802;53.160;8.214;2023-08-24T07:32:29;29.50;99.90
23267;DHT22;11802;53.160;8.214;2023-08-24T07:34:56;29.90;99.90
23267;DHT22;11802;53.160;8.214;2023-08-24T07:37:24;31.00;99.90
23267;DHT22;11802;53.160;8.214;2023-08-24T07:39:49;30.40;99.90
23267;DHT22;11802;53.160;8.214;2023-08-24T07:42:15;30.90;99.90
23267;DHT22;11802;53.160;8.214;2023-08-24T07:44:41;29.80;99.90
23267;DHT22;11802;53.160;8.214;2023-08-24T07:47:07;29.90;99.90
23267;DHT22;11802;53.160;8.214;2023-08-24T07:49:33;29.90;99.90
23267;DHT22;11802;53.160;8.214;2023-08-24T07:51:59;29.60;99.90
23267;DHT22;11802;53.160;8.214;2023-08-24T07:54:24;29.50;99.90
23267;DHT22;11802;53.160;8.214;2023-08-24T07:56:50;29.70;99.90
23267;DHT22;11802;53.160;8.214;2023-08-24T07:59:16;31.10;99.90
23267;DHT22;11802;53.160;8.214;2023-08-24T08:01:41;31.70;99.90
23267;DHT22;11802;53.160;8.214;2023-08-24T08:04:07;31.80;99.90
23267;DHT22;11802;53.160;8.214;2023-08-24T08:06:33;32.20;99.90
23267;DHT22;11802;53.160;8.214;2023-08-24T08:08:59;31.40;99.90
23267;DHT22;11802;53.160;8.214;2023-08-24T08:11:24;32.10;99.90
23267;DHT22;11802;53.160;8.214;2023-08-24T08:13:50;32.90;99.90
23267;DHT22;11802;53.160;8.214;2023-08-24T08:16:19;31.60;99.90
23267;DHT22;11802;53.160;8.214;2023-08-24T08:18:45;30.80;99.90
23267;DHT22;11802;53.160;8.214;2023-08-24T08:21:15;31.40;99.90
23267;DHT22;11802;53.160;8.214;2023-08-24T08:23:41;32.30;99.90
23267;DHT22;11802;53.160;8.214;2023-08-24T08:26:09;32.80;99.90
23267;DHT22;11802;53.160;8.214;2023-08-24T08:28:36;33.30;99.90
23267;DHT22;11802;53.160;8.214;2023-08-24T08:31:01;33.90;99.90
23267;DHT22;11802;53.160;8.214;2023-08-24T08:33:28;34.30;99.90
23267;DHT22;11802;53.160;8.214;2023-08-24T08:35:54;34.50;99.90
23267;DHT22;11802;53.160;8.214;2023-08-24T08:38:19;34.20;99.90
23267;DHT22;11802;53.160;8.214;2023-08-24T08:40:49;34.60;99.90
23267;DHT22;11802;53.160;8.214;2023-08-24T08:43:15;35.20;99.90
23267;DHT22;11802;53.160;8.214;2023-08-24T08:45:41;35.40;99.90
23267;DHT22;11802;53.160;8.214;2023-08-24T08:48:07;34.60;99.90
23267;DHT22;11802;53.160;8.214;2023-08-24T08:50:34;34.40;99.90
23267;DHT22;11802;53.160;8.214;2023-08-24T08:53:01;33.80;99.90
23267;DHT22;11802;53.160;8.214;2023-08-24T08:55:27;33.10;99.90
23267;DHT22;11802;53.160;8.214;2023-08-24T08:58:16;32.90;99.90
23267;DHT22;11802;53.160;8.214;2023-08-24T09:00:44;32.80;99.90
23267;DHT22;11802;53.160;8.214;2023-08-24T09:03:11;32.60;99.90
23267;DHT22;11802;53.160;8.214;2023-08-24T09:05:38;32.60;99.90
23267;DHT22;11802;53.160;8.214;2023-08-24T09:08:05;33.10;99.90
23267;DHT22;11802;53.160;8.214;2023-08-24T09:10:30;33.90;99.90
23267;DHT22;11802;53.160;8.214;2023-08-24T09:12:57;34.40;99.90
23267;DHT22;11802;53.160;8.214;2023-08-24T09:15:24;34.10;99.90
23267;DHT22;11802;53.160;8.214;2023-08-24T09:17:52;33.90;99.90
23267;DHT22;11802;53.160;8.214;2023-08-24T09:20:22;33.50;99.90
23267;DHT22;11802;53.160;8.214;2023-08-24T09:22:48;34.20;99.90
23267;DHT22;11802;53.160;8.214;2023-08-24T09:25:20;34.40;99.90
23267;DHT22;11802;53.160;8.214;2023-08-24T09:27:56;34.70;99.90
23267;DHT22;11802;53.160;8.214;2023-08-24T09:30:23;34.80;99.90
23267;DHT22;11802;53.160;8.214;2023-08-24T09:32:49;34.50;99.90
23267;DHT22;11802;53.160;8.214;2023-08-24T09:35:15;34.30;99.90
23267;DHT22;11802;53.160;8.214;2023-08-24T09:37:42;34.40;99.90
23267;DHT22;11802;53.160;8.214;2023-08-24T09:40:27;34.10;99.90
23267;DHT22;11802;53.160;8.214;2023-08-24T09:42:53;34.10;99.90
23267;DHT22;11802;53.160;8.214;2023-08-24T09:45:18;33.60;99.90
23267;DHT22;11802;53.160;8.214;2023-08-24T09:47:51;31.80;99.90
23267;DHT22;11802;53.160;8.214;2023-08-24T09:50:17;31.20;99.90
23267;DHT22;11802;53.160;8.214;2023-08-24T09:52:44;31.10;99.90
23267;DHT22;11802;53.160;8.214;2023-08-24T09:55:13;30.80;99.90
23267;DHT22;11802;53.160;8.214;2023-08-24T09:57:42;30.60;99.90
23267;DHT22;11802;53.160;8.214;2023-08-24T10:00:10;30.50;99.90
23267;DHT22;11802;53.160;8.214;2023-08-24T10:02:38;30.30;99.90
23267;DHT22;11802;53.160;8.214;2023-08-24T10:05:07;30.70;99.90
23267;DHT22;11802;53.160;8.214;2023-08-24T10:07:35;31.30;99.90
23267;DHT22;11802;53.160;8.214;2023-08-24T10:10:24;31.20;99.90
23267;DHT22;11802;53.160;8.214;2023-08-24T10:16:54;31.70;99.90
23267;DHT22;11802;53.160;8.214;2023-08-24T10:19:22;32.00;99.90
23267;DHT22;11802;53.160;8.214;2023-08-24T10:21:53;31.50;99.90
23267;DHT22;11802;53.160;8.214;2023-08-24T10:24:22;31.40;99.90
23267;DHT22;11802;53.160;8.214;2023-08-24T10:26:48;31.40;99.90
23267;DHT22;11802;53.160;8.214;2023-08-24T10:29:16;31.20;99.90
23267;DHT22;11802;53.160;8.214;2023-08-24T10:31:43;31.20;99.90
23267;DHT22;11802;53.160;8.214;2023-08-24T10:34:09;31.20;99.90
23267;DHT22;11802;53.160;8.214;2023-08-24T10:36:39;31.00;99.90
23267;DHT22;11802;53.160;8.214;2023-08-24T10:39:05;30.80;99.90
23267;DHT22;11802;53.160;8.214;2023-08-24T10:41:52;30.50;99.90
23267;DHT22;11802;53.160;8.214;2023-08-24T10:44:33;30.40;99.90
23267;DHT22;11802;53.160;8.214;2023-08-24T10:47:26;29.60;99.90
23267;DHT22;11802;53.160;8.214;2023-08-24T10:52:23;30.40;99.90
23267;DHT22;11802;53.160;8.214;2023-08-24T10:54:50;30.40;99.90
23267;DHT22;11802;53.160;8.214;2023-08-24T10:57:27;30.80;99.90
23267;DHT22;11802;53.160;8.214;2023-08-24T11:00:02;30.60;99.90
23267;DHT22;11802;53.160;8.214;2023-08-24T11:02:47;30.40;99.90
23267;DHT22;11802;53.160;8.214;2023-08-24T11:07:55;29.90;99.90
23267;DHT22;11802;53.160;8.214;2023-08-24T11:10:23;29.50;99.90
23267;DHT22;11802;53.160;8.214;2023-08-24T11:15:32;29.50;99.90
23267;DHT22;11802;53.160;8.214;2023-08-24T11:18:26;29.50;99.90
23267;DHT22;11802;53.160;8.214;2023-08-24T11:21:02;29.60;99.90
23267;DHT22;11802;53.160;8.214;2023-08-24T11:23:29;29.90;99.90
23267;DHT22;11802;53.160;8.214;2023-08-24T11:25:55;29.90;99.90
23267;DHT22;11802;53.160;8.214;2023-08-24T11:28:23;29.40;99.90
23267;DHT22;11802;53.160;8.214;2023-08-24T11:30:50;29.50;99.90
23267;DHT22;11802;53.160;8.214;2023-08-24T11:33:33;29.70;99.90
23267;DHT22;11802;53.160;8.214;2023-08-24T11:36:00;29.90;99.90
23267;DHT22;11802;53.160;8.214;2023-08-24T11:38:42;29.90;99.90
23267;DHT22;11802;53.160;8.214;2023-08-24T11:41:13;29.90;99.90
23267;DHT22;11802;53.160;8.214;2023-08-24T11:43:40;29.80;99.90
23267;DHT22;11802;53.160;8.214;2023-08-24T11:46:06;29.70;99.90
23267;DHT22;11802;53.160;8.214;2023-08-24T11:48:32;29.30;99.90
23267;DHT22;11802;53.160;8.214;2023-08-24T11:50:59;29.60;99.90
23267;DHT22;11802;53.160;8.214;2023-08-24T11:53:25;29.80;99.90
23267;DHT22;11802;53.160;8.214;2023-08-24T11:55:55;30.30;99.90
23267;DHT22;11802;53.160;8.214;2023-08-24T11:58:20;29.80;99.90
23267;DHT22;11802;53.160;8.214;2023-08-24T12:00:46;29.70;99.90
23267;DHT22;11802;53.160;8.214;2023-08-24T12:03:12;29.70;99.90
23267;DHT22;11802;53.160;8.214;2023-08-24T12:05:38;29.40;99.90
23267;DHT22;11802;53.160;8.214;2023-08-24T12:08:05;29.40;99.90
23267;DHT22;11802;53.160;8.214;2023-08-24T12:10:31;29.50;99.90
23267;DHT22;11802;53.160;8.214;2023-08-24T12:13:04;29.60;99.90
23267;DHT22;11802;53.160;8.214;2023-08-24T12:15:36;29.50;99.90
23267;DHT22;11802;53.160;8.214;2023-08-24T12:18:10;29.30;99.90
23267;DHT22;11802;53.160;8.214;2023-08-24T12:20:36;29.50;99.90
23267;DHT22;11802;53.160;8.214;2023-08-24T12:23:02;29.60;99.90
23267;DHT22;11802;53.160;8.214;2023-08-24T12:25:27;29.60;99.90
23267;DHT22;11802;53.160;8.214;2023-08-24T12:28:08;29.50;99.90
23267;DHT22;11802;53.160;8.214;2023-08-24T12:30:44;29.40;99.90
23267;DHT22;11802;53.160;8.214;2023-08-24T12:33:15;29.40;99.90
23267;DHT22;11802;53.160;8.214;2023-08-24T12:35:45;29.40;99.90
23267;DHT22;11802;53.160;8.214;2023-08-24T12:38:11;29.60;99.90
23267;DHT22;11802;53.160;8.214;2023-08-24T12:40:40;29.50;99.90
23267;DHT22;11802;53.160;8.214;2023-08-24T12:43:07;29.60;99.90
23267;DHT22;11802;53.160;8.214;2023-08-24T12:45:33;29.40;99.90
23267;DHT22;11802;53.160;8.214;2023-08-24T12:47:58;29.40;99.90
23267;DHT22;11802;53.160;8.214;2023-08-24T12:50:31;28.80;99.90
23267;DHT22;11802;53.160;8.214;2023-08-24T12:53:17;29.00;99.90
23267;DHT22;11802;53.160;8.214;2023-08-24T12:55:43;29.30;99.90
23267;DHT22;11802;53.160;8.214;2023-08-24T12:58:09;29.40;99.90
23267;DHT22;11802;53.160;8.214;2023-08-24T13:00:34;29.20;99.90
23267;DHT22;11802;53.160;8.214;2023-08-24T13:03:03;29.20;99.90
23267;DHT22;11802;53.160;8.214;2023-08-24T13:05:50;29.30;99.90
23267;DHT22;11802;53.160;8.214;2023-08-24T13:08:16;29.10;99.90
23267;DHT22;11802;53.160;8.214;2023-08-24T13:10:41;29.10;99.90
23267;DHT22;11802;53.160;8.214;2023-08-24T13:13:07;28.90;99.90
23267;DHT22;11802;53.160;8.214;2023-08-24T13:15:33;29.00;99.90
23267;DHT22;11802;53.160;8.214;2023-08-24T13:17:58;29.00;99.90
23267;DHT22;11802;53.160;8.214;2023-08-24T13:20:24;29.20;99.90
23267;DHT22;11802;53.160;8.214;2023-08-24T13:22:51;28.90;99.90
23267;DHT22;11802;53.160;8.214;2023-08-24T13:25:18;29.30;99.90
23267;DHT22;11802;53.160;8.214;2023-08-24T13:27:43;29.30;99.90
23267;DHT22;11802;53.160;8.214;2023-08-24T13:30:09;29.40;99.90
23267;DHT22;11802;53.160;8.214;2023-08-24T13:32:35;29.20;99.90
23267;DHT22;11802;53.160;8.214;2023-08-24T13:35:01;29.20;99.90
23267;DHT22;11802;53.160;8.214;2023-08-24T13:37:27;29.40;99.90
23267;DHT22;11802;53.160;8.214;2023-08-24T13:39:52;29.20;99.90
23267;DHT22;11802;53.160;8.214;2023-08-24T13:42:18;28.90;99.90
23267;DHT22;11802;53.160;8.214;2023-08-24T13:44:45;28.90;99.90
23267;DHT22;11802;53.160;8.214;2023-08-24T13:47:11;29.00;99.90
23267;DHT22;11802;53.160;8.214;2023-08-24T13:49:36;29.20;99.90
23267;DHT22;11802;53.160;8.214;2023-08-24T13:52:03;29.00;99.90
23267;DHT22;11802;53.160;8.214;2023-08-24T13:54:29;29.20;99.90
23267;DHT22;11802;53.160;8.214;2023-08-24T13:56:55;29.20;99.90
23267;DHT22;11802;53.160;8.214;2023-08-24T13:59:21;29.20;99.90
23267;DHT22;11802;53.160;8.214;2023-08-24T14:01:47;29.40;99.90
23267;DHT22;11802;53.160;8.214;2023-08-24T14:04:13;29.50;99.90
23267;DHT22;11802;53.160;8.214;2023-08-24T14:06:38;29.40;99.90
23267;DHT22;11802;53.160;8.214;2023-08-24T14:09:04;29.40;99.90
23267;DHT22;11802;53.160;8.214;2023-08-24T14:11:31;29.30;99.90
23267;DHT22;11802;53.160;8.214;2023-08-24T14:13:57;29.10;99.90
23267;DHT22;11802;53.160;8.214;2023-08-24T14:16:23;28.70;99.90
23267;DHT22;11802;53.160;8.214;2023-08-24T14:18:48;28.80;99.90
23267;DHT22;11802;53.160;8.214;2023-08-24T14:21:15;28.80;99.90
23267;DHT22;11802;53.160;8.214;2023-08-24T14:23:41;28.70;99.90
23267;DHT22;11802;53.160;8.214;2023-08-24T14:26:07;28.50;99.90
23267;DHT22;11802;53.160;8.214;2023-08-24T14:28:54;28.50;99.90
23267;DHT22;11802;53.160;8.214;2023-08-24T14:31:21;28.30;99.90
23267;DHT22;11802;53.160;8.214;2023-08-24T14:33:47;28.00;99.90
23267;DHT22;11802;53.160;8.214;2023-08-24T14:36:12;27.80;99.90
23267;DHT22;11802;53.160;8.214;2023-08-24T14:38:39;27.90;99.90
23267;DHT22;11802;53.160;8.214;2023-08-24T14:41:10;27.70;99.90
23267;DHT22;11802;53.160;8.214;2023-08-24T14:43:37;27.70;99.90
23267;DHT22;11802;53.160;8.214;2023-08-24T14:46:03;27.40;99.90
23267;DHT22;11802;53.160;8.214;2023-08-24T14:48:29;27.20;99.90
23267;DHT22;11802;53.160;8.214;2023-08-24T14:50:55;27.30;99.90
23267;DHT22;11802;53.160;8.214;2023-08-24T14:53:22;27.00;99.90
23267;DHT22;11802;53.160;8.214;2023-08-24T14:55:47;26.90;99.90
23267;DHT22;11802;53.160;8.214;2023-08-24T14:58:13;27.00;99.90
23267;DHT22;11802;53.160;8.214;2023-08-24T15:00:38;27.00;1.00
23267;DHT22;11802;53.160;8.214;2023-08-24T15:03:04;26.70;1.00
23267;DHT22;11802;53.160;8.214;2023-08-24T15:05:30;26.80;1.00
23267;DHT22;11802;53.160;8.214;2023-08-24T15:07:55;26.80;1.00
23267;DHT22;11802;53.160;8.214;2023-08-24T15:10:21;26.80;1.00
23267;DHT22;11802;53.160;8.214;2023-08-24T15:12:47;26.80;1.00
23267;DHT22;11802;53.160;8.214;2023-08-24T15:15:13;26.80;1.00
23267;DHT22;11802;53.160;8.214;2023-08-24T15:17:43;26.80;1.00
23267;DHT22;11802;53.160;8.214;2023-08-24T15:20:10;26.60;1.00
23267;DHT22;11802;53.160;8.214;2023-08-24T15:22:36;26.60;1.00
23267;DHT22;11802;53.160;8.214;2023-08-24T15:25:01;26.50;1.00
23267;DHT22;11802;53.160;8.214;2023-08-24T15:27:28;26.50;1.00
23267;DHT22;11802;53.160;8.214;2023-08-24T15:29:53;26.40;51.50
23267;DHT22;11802;53.160;8.214;2023-08-24T15:32:20;26.50;8.40
23267;DHT22;11802;53.160;8.214;2023-08-24T15:34:45;26.40;99.90
23267;DHT22;11802;53.160;8.214;2023-08-24T15:37:11;26.30;99.90
23267;DHT22;11802;53.160;8.214;2023-08-24T15:39:38;26.20;99.90
23267;DHT22;11802;53.160;8.214;2023-08-24T15:42:05;26.10;99.90
23267;DHT22;11802;53.160;8.214;2023-08-24T15:44:31;26.00;99.90
23267;DHT22;11802;53.160;8.214;2023-08-24T15:46:57;26.00;99.90